Aviation Services » Trend Forecast Friday, February 24, 2017
 Trend Forecast

NVSS 240400Z 01005KT 9999 TS SCT020 FEW025CB OVC110 27/25 Q1007 RMK NIL=
INTER 240400/240600 7000 TSRA FEW008 BKN016 FEW020CB=